sensor_id;sensor_type;location;lat;lon;timestamp;P1;durP1;ratioP1;P2;durP2;ratioP2
18176;SDS011;9213;50.858;3.964;2023-07-29T00:02:13;2.03;;;1.83;;
18176;SDS011;9213;50.858;3.964;2023-07-29T00:04:40;1.83;;;1.70;;
18176;SDS011;9213;50.858;3.964;2023-07-29T00:07:06;4.75;;;1.85;;
18176;SDS011;9213;50.858;3.964;2023-07-29T00:09:35;2.95;;;1.85;;
18176;SDS011;9213;50.858;3.964;2023-07-29T00:12:03;6.30;;;2.10;;
18176;SDS011;9213;50.858;3.964;2023-07-29T00:14:30;2.55;;;1.98;;
18176;SDS011;9213;50.858;3.964;2023-07-29T00:16:57;2.63;;;1.75;;
18176;SDS011;9213;50.858;3.964;2023-07-29T00:19:24;3.15;;;2.13;;
18176;SDS011;9213;50.858;3.964;2023-07-29T00:21:53;3.40;;;2.20;;
18176;SDS011;9213;50.858;3.964;2023-07-29T00:24:20;3.72;;;2.20;;
18176;SDS011;9213;50.858;3.964;2023-07-29T00:26:48;3.15;;;2.15;;
18176;SDS011;9213;50.858;3.964;2023-07-29T00:29:15;2.20;;;2.00;;
18176;SDS011;9213;50.858;3.964;2023-07-29T00:31:42;3.83;;;1.90;;
18176;SDS011;9213;50.858;3.964;2023-07-29T00:34:09;2.45;;;2.22;;
18176;SDS011;9213;50.858;3.964;2023-07-29T00:36:36;2.53;;;2.25;;
18176;SDS011;9213;50.858;3.964;2023-07-29T00:39:03;3.47;;;2.40;;
18176;SDS011;9213;50.858;3.964;2023-07-29T00:41:29;4.45;;;2.33;;
18176;SDS011;9213;50.858;3.964;2023-07-29T00:43:58;3.50;;;2.22;;
18176;SDS011;9213;50.858;3.964;2023-07-29T00:46:25;2.90;;;2.17;;
18176;SDS011;9213;50.858;3.964;2023-07-29T00:48:54;2.38;;;2.17;;
18176;SDS011;9213;50.858;3.964;2023-07-29T00:51:22;3.45;;;2.30;;
18176;SDS011;9213;50.858;3.964;2023-07-29T00:53:49;2.65;;;2.17;;
18176;SDS011;9213;50.858;3.964;2023-07-29T00:56:15;2.70;;;2.38;;
18176;SDS011;9213;50.858;3.964;2023-07-29T00:58:42;3.45;;;2.30;;
18176;SDS011;9213;50.858;3.964;2023-07-29T01:01:11;3.13;;;2.47;;
18176;SDS011;9213;50.858;3.964;2023-07-29T01:03:38;3.08;;;2.17;;
18176;SDS011;9213;50.858;3.964;2023-07-29T01:06:08;2.47;;;2.28;;
18176;SDS011;9213;50.858;3.964;2023-07-29T01:08:46;5.40;;;2.22;;
18176;SDS011;9213;50.858;3.964;2023-07-29T01:11:20;2.25;;;2.00;;
18176;SDS011;9213;50.858;3.964;2023-07-29T01:13:58;2.53;;;2.05;;
18176;SDS011;9213;50.858;3.964;2023-07-29T01:16:32;4.88;;;2.42;;
18176;SDS011;9213;50.858;3.964;2023-07-29T01:19:05;4.47;;;2.30;;
18176;SDS011;9213;50.858;3.964;2023-07-29T01:21:33;2.65;;;2.45;;
18176;SDS011;9213;50.858;3.964;2023-07-29T01:24:03;2.33;;;2.13;;
18176;SDS011;9213;50.858;3.964;2023-07-29T01:26:30;3.95;;;2.50;;
18176;SDS011;9213;50.858;3.964;2023-07-29T01:28:57;2.83;;;2.15;;
18176;SDS011;9213;50.858;3.964;2023-07-29T01:31:27;2.65;;;2.38;;
18176;SDS011;9213;50.858;3.964;2023-07-29T01:34:01;2.85;;;2.50;;
18176;SDS011;9213;50.858;3.964;2023-07-29T01:36:34;3.10;;;2.80;;
18176;SDS011;9213;50.858;3.964;2023-07-29T01:39:06;2.70;;;2.50;;
18176;SDS011;9213;50.858;3.964;2023-07-29T01:41:34;2.70;;;2.50;;
18176;SDS011;9213;50.858;3.964;2023-07-29T01:44:01;3.58;;;2.63;;
18176;SDS011;9213;50.858;3.964;2023-07-29T01:46:29;3.08;;;2.75;;
18176;SDS011;9213;50.858;3.964;2023-07-29T01:48:59;4.22;;;2.70;;
18176;SDS011;9213;50.858;3.964;2023-07-29T01:51:26;2.72;;;2.45;;
18176;SDS011;9213;50.858;3.964;2023-07-29T01:53:53;3.58;;;2.90;;
18176;SDS011;9213;50.858;3.964;2023-07-29T01:56:22;3.45;;;2.80;;
18176;SDS011;9213;50.858;3.964;2023-07-29T01:58:48;5.05;;;3.28;;
18176;SDS011;9213;50.858;3.964;2023-07-29T02:01:15;4.28;;;2.88;;
18176;SDS011;9213;50.858;3.964;2023-07-29T02:03:43;3.65;;;2.80;;
18176;SDS011;9213;50.858;3.964;2023-07-29T02:06:10;4.38;;;2.95;;
18176;SDS011;9213;50.858;3.964;2023-07-29T02:08:37;3.30;;;3.00;;
18176;SDS011;9213;50.858;3.964;2023-07-29T02:11:05;3.08;;;2.70;;
18176;SDS011;9213;50.858;3.964;2023-07-29T02:13:34;3.30;;;3.00;;
18176;SDS011;9213;50.858;3.964;2023-07-29T02:16:01;3.75;;;2.97;;
18176;SDS011;9213;50.858;3.964;2023-07-29T02:18:27;5.18;;;2.72;;
18176;SDS011;9213;50.858;3.964;2023-07-29T02:20:54;3.92;;;2.92;;
18176;SDS011;9213;50.858;3.964;2023-07-29T02:23:21;4.25;;;2.75;;
18176;SDS011;9213;50.858;3.964;2023-07-29T02:25:48;4.05;;;2.75;;
18176;SDS011;9213;50.858;3.964;2023-07-29T02:28:16;3.33;;;2.85;;
18176;SDS011;9213;50.858;3.964;2023-07-29T02:30:45;4.30;;;2.70;;
18176;SDS011;9213;50.858;3.964;2023-07-29T02:33:14;4.18;;;2.63;;
18176;SDS011;9213;50.858;3.964;2023-07-29T02:35:41;3.50;;;2.60;;
18176;SDS011;9213;50.858;3.964;2023-07-29T02:38:08;3.53;;;2.70;;
18176;SDS011;9213;50.858;3.964;2023-07-29T02:40:35;4.25;;;2.30;;
18176;SDS011;9213;50.858;3.964;2023-07-29T02:43:02;3.28;;;2.95;;
18176;SDS011;9213;50.858;3.964;2023-07-29T02:45:29;5.63;;;2.92;;
18176;SDS011;9213;50.858;3.964;2023-07-29T02:47:57;4.15;;;2.83;;
18176;SDS011;9213;50.858;3.964;2023-07-29T02:50:24;2.55;;;2.35;;
18176;SDS011;9213;50.858;3.964;2023-07-29T02:52:50;3.70;;;2.38;;
18176;SDS011;9213;50.858;3.964;2023-07-29T02:55:18;5.32;;;2.80;;
18176;SDS011;9213;50.858;3.964;2023-07-29T02:57:45;3.78;;;3.47;;
18176;SDS011;9213;50.858;3.964;2023-07-29T03:00:12;3.75;;;3.00;;
18176;SDS011;9213;50.858;3.964;2023-07-29T03:02:40;3.07;;;2.70;;
18176;SDS011;9213;50.858;3.964;2023-07-29T03:05:08;6.18;;;3.25;;
18176;SDS011;9213;50.858;3.964;2023-07-29T03:07:35;4.45;;;3.08;;
18176;SDS011;9213;50.858;3.964;2023-07-29T03:10:02;5.05;;;2.97;;
18176;SDS011;9213;50.858;3.964;2023-07-29T03:12:30;3.40;;;2.88;;
18176;SDS011;9213;50.858;3.964;2023-07-29T03:14:57;4.63;;;3.47;;
18176;SDS011;9213;50.858;3.964;2023-07-29T03:17:25;4.88;;;2.92;;
18176;SDS011;9213;50.858;3.964;2023-07-29T03:19:53;5.90;;;3.20;;
18176;SDS011;9213;50.858;3.964;2023-07-29T03:22:21;5.05;;;3.25;;
18176;SDS011;9213;50.858;3.964;2023-07-29T03:24:48;6.25;;;3.13;;
18176;SDS011;9213;50.858;3.964;2023-07-29T03:27:15;3.70;;;3.10;;
18176;SDS011;9213;50.858;3.964;2023-07-29T03:29:42;4.50;;;3.30;;
18176;SDS011;9213;50.858;3.964;2023-07-29T03:32:09;7.27;;;3.13;;
18176;SDS011;9213;50.858;3.964;2023-07-29T03:34:37;5.13;;;3.50;;
18176;SDS011;9213;50.858;3.964;2023-07-29T03:37:05;5.87;;;3.43;;
18176;SDS011;9213;50.858;3.964;2023-07-29T03:39:33;4.38;;;3.42;;
18176;SDS011;9213;50.858;3.964;2023-07-29T03:42:00;5.03;;;3.50;;
18176;SDS011;9213;50.858;3.964;2023-07-29T03:44:28;6.10;;;3.13;;
18176;SDS011;9213;50.858;3.964;2023-07-29T03:46:56;3.60;;;3.00;;
18176;SDS011;9213;50.858;3.964;2023-07-29T03:49:23;6.55;;;3.30;;
18176;SDS011;9213;50.858;3.964;2023-07-29T03:51:50;5.13;;;3.27;;
18176;SDS011;9213;50.858;3.964;2023-07-29T03:54:16;4.83;;;3.30;;
18176;SDS011;9213;50.858;3.964;2023-07-29T03:56:45;4.45;;;3.70;;
18176;SDS011;9213;50.858;3.964;2023-07-29T03:59:12;4.32;;;3.22;;
18176;SDS011;9213;50.858;3.964;2023-07-29T04:01:39;6.03;;;3.90;;
18176;SDS011;9213;50.858;3.964;2023-07-29T04:04:05;6.13;;;3.65;;
18176;SDS011;9213;50.858;3.964;2023-07-29T04:06:32;5.00;;;3.65;;
18176;SDS011;9213;50.858;3.964;2023-07-29T04:08:59;4.07;;;3.30;;
18176;SDS011;9213;50.858;3.964;2023-07-29T04:11:26;4.33;;;3.47;;
18176;SDS011;9213;50.858;3.964;2023-07-29T04:13:55;4.85;;;3.95;;
18176;SDS011;9213;50.858;3.964;2023-07-29T04:16:22;6.30;;;4.20;;
18176;SDS011;9213;50.858;3.964;2023-07-29T04:18:48;4.07;;;3.63;;
18176;SDS011;9213;50.858;3.964;2023-07-29T04:21:15;6.97;;;3.50;;
18176;SDS011;9213;50.858;3.964;2023-07-29T04:23:42;6.33;;;3.77;;
18176;SDS011;9213;50.858;3.964;2023-07-29T04:26:09;4.37;;;3.90;;
18176;SDS011;9213;50.858;3.964;2023-07-29T04:28:36;8.07;;;3.88;;
18176;SDS011;9213;50.858;3.964;2023-07-29T04:31:04;5.23;;;3.70;;
18176;SDS011;9213;50.858;3.964;2023-07-29T04:33:31;5.03;;;4.13;;
18176;SDS011;9213;50.858;3.964;2023-07-29T04:35:59;8.35;;;3.97;;
18176;SDS011;9213;50.858;3.964;2023-07-29T04:38:30;5.07;;;3.78;;
18176;SDS011;9213;50.858;3.964;2023-07-29T04:40:58;7.97;;;3.97;;
18176;SDS011;9213;50.858;3.964;2023-07-29T04:43:26;5.10;;;3.57;;
18176;SDS011;9213;50.858;3.964;2023-07-29T04:45:54;4.43;;;3.90;;
18176;SDS011;9213;50.858;3.964;2023-07-29T04:48:22;4.70;;;3.80;;
18176;SDS011;9213;50.858;3.964;2023-07-29T04:50:49;5.00;;;3.33;;
18176;SDS011;9213;50.858;3.964;2023-07-29T04:53:16;6.53;;;3.80;;
18176;SDS011;9213;50.858;3.964;2023-07-29T04:55:43;4.97;;;3.63;;
18176;SDS011;9213;50.858;3.964;2023-07-29T04:58:10;4.40;;;3.47;;
18176;SDS011;9213;50.858;3.964;2023-07-29T05:00:37;4.27;;;3.63;;
18176;SDS011;9213;50.858;3.964;2023-07-29T05:03:03;5.00;;;3.30;;
18176;SDS011;9213;50.858;3.964;2023-07-29T05:05:33;6.17;;;3.53;;
18176;SDS011;9213;50.858;3.964;2023-07-29T05:07:59;5.60;;;3.30;;
18176;SDS011;9213;50.858;3.964;2023-07-29T05:10:26;4.70;;;3.57;;
18176;SDS011;9213;50.858;3.964;2023-07-29T05:12:53;3.60;;;2.77;;
18176;SDS011;9213;50.858;3.964;2023-07-29T05:15:20;3.53;;;3.23;;
18176;SDS011;9213;50.858;3.964;2023-07-29T05:17:47;4.50;;;3.20;;
18176;SDS011;9213;50.858;3.964;2023-07-29T05:20:14;4.17;;;3.27;;
18176;SDS011;9213;50.858;3.964;2023-07-29T05:22:42;6.03;;;3.10;;
18176;SDS011;9213;50.858;3.964;2023-07-29T05:25:09;4.17;;;3.33;;
18176;SDS011;9213;50.858;3.964;2023-07-29T05:27:36;4.10;;;3.20;;
18176;SDS011;9213;50.858;3.964;2023-07-29T05:30:03;4.25;;;3.33;;
18176;SDS011;9213;50.858;3.964;2023-07-29T05:32:31;6.43;;;3.17;;
18176;SDS011;9213;50.858;3.964;2023-07-29T05:34:58;4.65;;;3.20;;
18176;SDS011;9213;50.858;3.964;2023-07-29T05:37:25;3.80;;;3.10;;
18176;SDS011;9213;50.858;3.964;2023-07-29T05:39:53;3.33;;;2.97;;
18176;SDS011;9213;50.858;3.964;2023-07-29T05:42:20;4.50;;;3.20;;
18176;SDS011;9213;50.858;3.964;2023-07-29T05:44:47;3.35;;;3.05;;
18176;SDS011;9213;50.858;3.964;2023-07-29T05:47:14;3.25;;;2.67;;
18176;SDS011;9213;50.858;3.964;2023-07-29T05:49:41;4.40;;;2.92;;
18176;SDS011;9213;50.858;3.964;2023-07-29T05:52:08;4.60;;;2.90;;
18176;SDS011;9213;50.858;3.964;2023-07-29T05:54:35;6.15;;;3.10;;
18176;SDS011;9213;50.858;3.964;2023-07-29T05:57:03;3.20;;;2.90;;
18176;SDS011;9213;50.858;3.964;2023-07-29T05:59:31;4.38;;;2.83;;
18176;SDS011;9213;50.858;3.964;2023-07-29T06:01:57;4.20;;;2.47;;
18176;SDS011;9213;50.858;3.964;2023-07-29T06:04:23;4.68;;;2.75;;
18176;SDS011;9213;50.858;3.964;2023-07-29T06:06:50;3.13;;;2.70;;
18176;SDS011;9213;50.858;3.964;2023-07-29T06:09:17;3.08;;;2.72;;
18176;SDS011;9213;50.858;3.964;2023-07-29T06:11:44;5.57;;;2.55;;
18176;SDS011;9213;50.858;3.964;2023-07-29T06:14:12;3.05;;;2.65;;
18176;SDS011;9213;50.858;3.964;2023-07-29T06:16:39;3.22;;;2.63;;
18176;SDS011;9213;50.858;3.964;2023-07-29T06:19:06;4.40;;;2.53;;
18176;SDS011;9213;50.858;3.964;2023-07-29T06:21:33;3.33;;;2.17;;
18176;SDS011;9213;50.858;3.964;2023-07-29T06:24:00;3.17;;;2.22;;
18176;SDS011;9213;50.858;3.964;2023-07-29T06:26:28;3.05;;;2.28;;
18176;SDS011;9213;50.858;3.964;2023-07-29T06:28:55;2.85;;;2.30;;
18176;SDS011;9213;50.858;3.964;2023-07-29T06:31:23;3.33;;;2.22;;
18176;SDS011;9213;50.858;3.964;2023-07-29T06:33:50;3.03;;;2.05;;
18176;SDS011;9213;50.858;3.964;2023-07-29T06:36:17;2.67;;;2.10;;
18176;SDS011;9213;50.858;3.964;2023-07-29T06:38:44;4.18;;;2.10;;
18176;SDS011;9213;50.858;3.964;2023-07-29T06:41:11;4.47;;;2.10;;
18176;SDS011;9213;50.858;3.964;2023-07-29T06:43:38;5.03;;;2.28;;
18176;SDS011;9213;50.858;3.964;2023-07-29T06:46:05;2.40;;;2.20;;
18176;SDS011;9213;50.858;3.964;2023-07-29T06:48:33;3.20;;;2.40;;
18176;SDS011;9213;50.858;3.964;2023-07-29T06:51:00;3.72;;;2.50;;
18176;SDS011;9213;50.858;3.964;2023-07-29T06:53:27;5.40;;;2.53;;
18176;SDS011;9213;50.858;3.964;2023-07-29T06:55:54;3.00;;;2.35;;
18176;SDS011;9213;50.858;3.964;2023-07-29T06:58:21;2.72;;;2.53;;
18176;SDS011;9213;50.858;3.964;2023-07-29T07:00:48;3.83;;;2.58;;
18176;SDS011;9213;50.858;3.964;2023-07-29T07:03:15;2.88;;;2.58;;
18176;SDS011;9213;50.858;3.964;2023-07-29T07:05:44;2.53;;;2.38;;
18176;SDS011;9213;50.858;3.964;2023-07-29T07:08:10;2.50;;;2.15;;
18176;SDS011;9213;50.858;3.964;2023-07-29T07:10:37;3.05;;;2.38;;
18176;SDS011;9213;50.858;3.964;2023-07-29T07:13:04;2.60;;;2.40;;
18176;SDS011;9213;50.858;3.964;2023-07-29T07:15:31;2.92;;;2.25;;
18176;SDS011;9213;50.858;3.964;2023-07-29T07:17:58;3.50;;;2.38;;
18176;SDS011;9213;50.858;3.964;2023-07-29T07:20:25;2.60;;;2.40;;
18176;SDS011;9213;50.858;3.964;2023-07-29T07:22:53;2.92;;;2.17;;
18176;SDS011;9213;50.858;3.964;2023-07-29T07:25:20;3.30;;;2.20;;
18176;SDS011;9213;50.858;3.964;2023-07-29T07:27:47;5.47;;;1.95;;
18176;SDS011;9213;50.858;3.964;2023-07-29T07:30:14;3.25;;;2.30;;
18176;SDS011;9213;50.858;3.964;2023-07-29T07:32:41;2.45;;;2.10;;
18176;SDS011;9213;50.858;3.964;2023-07-29T07:35:08;2.53;;;1.90;;
18176;SDS011;9213;50.858;3.964;2023-07-29T07:37:35;2.30;;;1.77;;
18176;SDS011;9213;50.858;3.964;2023-07-29T07:40:04;2.25;;;2.10;;
18176;SDS011;9213;50.858;3.964;2023-07-29T07:42:31;4.05;;;2.40;;
18176;SDS011;9213;50.858;3.964;2023-07-29T07:44:58;3.60;;;2.30;;
18176;SDS011;9213;50.858;3.964;2023-07-29T07:47:25;2.45;;;1.80;;
18176;SDS011;9213;50.858;3.964;2023-07-29T07:49:52;2.55;;;1.40;;
18176;SDS011;9213;50.858;3.964;2023-07-29T07:52:19;1.77;;;1.60;;
18176;SDS011;9213;50.858;3.964;2023-07-29T07:54:46;2.15;;;1.58;;
18176;SDS011;9213;50.858;3.964;2023-07-29T07:57:19;1.80;;;1.70;;
18176;SDS011;9213;50.858;3.964;2023-07-29T07:59:46;3.05;;;1.75;;
18176;SDS011;9213;50.858;3.964;2023-07-29T08:02:13;2.55;;;1.60;;
18176;SDS011;9213;50.858;3.964;2023-07-29T08:04:40;2.10;;;1.45;;
18176;SDS011;9213;50.858;3.964;2023-07-29T08:07:07;4.68;;;1.50;;
18176;SDS011;9213;50.858;3.964;2023-07-29T08:09:34;1.73;;;1.63;;
18176;SDS011;9213;50.858;3.964;2023-07-29T08:12:01;2.03;;;1.40;;
18176;SDS011;9213;50.858;3.964;2023-07-29T08:14:29;3.75;;;1.50;;
18176;SDS011;9213;50.858;3.964;2023-07-29T08:16:56;1.33;;;1.23;;
18176;SDS011;9213;50.858;3.964;2023-07-29T08:19:23;2.42;;;1.50;;
18176;SDS011;9213;50.858;3.964;2023-07-29T08:21:50;2.92;;;1.48;;
18176;SDS011;9213;50.858;3.964;2023-07-29T08:24:17;1.30;;;1.20;;
18176;SDS011;9213;50.858;3.964;2023-07-29T08:26:44;2.55;;;1.33;;
18176;SDS011;9213;50.858;3.964;2023-07-29T08:29:11;1.50;;;1.40;;
18176;SDS011;9213;50.858;3.964;2023-07-29T08:31:39;1.40;;;1.30;;
18176;SDS011;9213;50.858;3.964;2023-07-29T08:34:06;3.03;;;1.33;;
18176;SDS011;9213;50.858;3.964;2023-07-29T08:36:33;2.25;;;1.30;;
18176;SDS011;9213;50.858;3.964;2023-07-29T08:39:00;1.27;;;1.27;;
18176;SDS011;9213;50.858;3.964;2023-07-29T08:41:29;1.90;;;1.80;;
18176;SDS011;9213;50.858;3.964;2023-07-29T08:44:02;3.15;;;1.30;;
18176;SDS011;9213;50.858;3.964;2023-07-29T08:46:35;2.47;;;1.60;;
18176;SDS011;9213;50.858;3.964;2023-07-29T08:49:04;2.92;;;1.70;;
18176;SDS011;9213;50.858;3.964;2023-07-29T08:51:31;2.13;;;1.92;;
18176;SDS011;9213;50.858;3.964;2023-07-29T08:53:59;1.90;;;1.70;;
18176;SDS011;9213;50.858;3.964;2023-07-29T08:56:27;2.53;;;1.88;;
18176;SDS011;9213;50.858;3.964;2023-07-29T08:58:55;2.38;;;1.60;;
18176;SDS011;9213;50.858;3.964;2023-07-29T09:01:22;1.63;;;1.52;;
18176;SDS011;9213;50.858;3.964;2023-07-29T09:03:49;3.88;;;1.60;;
18176;SDS011;9213;50.858;3.964;2023-07-29T09:06:18;1.73;;;1.63;;
18176;SDS011;9213;50.858;3.964;2023-07-29T09:08:46;1.70;;;1.60;;
18176;SDS011;9213;50.858;3.964;2023-07-29T09:11:16;1.73;;;1.60;;
18176;SDS011;9213;50.858;3.964;2023-07-29T09:13:44;1.65;;;1.55;;
18176;SDS011;9213;50.858;3.964;2023-07-29T09:16:11;4.85;;;1.83;;
18176;SDS011;9213;50.858;3.964;2023-07-29T09:18:38;1.67;;;1.55;;
18176;SDS011;9213;50.858;3.964;2023-07-29T09:21:05;2.05;;;1.73;;
18176;SDS011;9213;50.858;3.964;2023-07-29T09:23:39;2.30;;;1.50;;
18176;SDS011;9213;50.858;3.964;2023-07-29T09:26:07;1.80;;;1.50;;
18176;SDS011;9213;50.858;3.964;2023-07-29T09:28:34;1.90;;;1.80;;
18176;SDS011;9213;50.858;3.964;2023-07-29T09:31:02;2.15;;;1.80;;
18176;SDS011;9213;50.858;3.964;2023-07-29T09:33:29;4.97;;;1.80;;
18176;SDS011;9213;50.858;3.964;2023-07-29T09:36:00;3.25;;;1.65;;
18176;SDS011;9213;50.858;3.964;2023-07-29T09:38:27;2.85;;;1.90;;
18176;SDS011;9213;50.858;3.964;2023-07-29T09:40:56;2.97;;;1.75;;
18176;SDS011;9213;50.858;3.964;2023-07-29T09:43:25;3.10;;;1.95;;
18176;SDS011;9213;50.858;3.964;2023-07-29T09:45:55;2.30;;;1.85;;
18176;SDS011;9213;50.858;3.964;2023-07-29T09:48:25;2.10;;;1.90;;
18176;SDS011;9213;50.858;3.964;2023-07-29T09:50:53;2.70;;;2.20;;
18176;SDS011;9213;50.858;3.964;2023-07-29T09:53:20;3.47;;;2.10;;
18176;SDS011;9213;50.858;3.964;2023-07-29T09:55:48;2.50;;;2.30;;
18176;SDS011;9213;50.858;3.964;2023-07-29T09:58:17;2.92;;;2.30;;
18176;SDS011;9213;50.858;3.964;2023-07-29T10:00:51;2.17;;;1.92;;
18176;SDS011;9213;50.858;3.964;2023-07-29T10:03:18;4.70;;;2.30;;
18176;SDS011;9213;50.858;3.964;2023-07-29T10:05:47;3.33;;;2.20;;
18176;SDS011;9213;50.858;3.964;2023-07-29T10:08:14;6.32;;;2.85;;
18176;SDS011;9213;50.858;3.964;2023-07-29T10:10:41;2.67;;;2.42;;
18176;SDS011;9213;50.858;3.964;2023-07-29T10:13:08;3.10;;;2.10;;
18176;SDS011;9213;50.858;3.964;2023-07-29T10:15:37;2.65;;;2.45;;
18176;SDS011;9213;50.858;3.964;2023-07-29T10:18:05;3.25;;;2.35;;
18176;SDS011;9213;50.858;3.964;2023-07-29T10:20:33;2.40;;;2.20;;
18176;SDS011;9213;50.858;3.964;2023-07-29T10:23:01;2.10;;;2.00;;
18176;SDS011;9213;50.858;3.964;2023-07-29T10:25:36;2.20;;;2.10;;
18176;SDS011;9213;50.858;3.964;2023-07-29T10:28:06;2.20;;;2.10;;
18176;SDS011;9213;50.858;3.964;2023-07-29T10:30:34;2.10;;;1.90;;
18176;SDS011;9213;50.858;3.964;2023-07-29T10:33:03;1.65;;;1.55;;
18176;SDS011;9213;50.858;3.964;2023-07-29T10:35:32;1.80;;;1.70;;
18176;SDS011;9213;50.858;3.964;2023-07-29T10:37:59;1.55;;;1.45;;
18176;SDS011;9213;50.858;3.964;2023-07-29T10:40:38;2.70;;;1.60;;
18176;SDS011;9213;50.858;3.964;2023-07-29T10:43:11;1.75;;;1.20;;
18176;SDS011;9213;50.858;3.964;2023-07-29T10:45:40;1.20;;;1.10;;
18176;SDS011;9213;50.858;3.964;2023-07-29T10:48:11;1.40;;;1.20;;
18176;SDS011;9213;50.858;3.964;2023-07-29T10:50:40;1.70;;;1.27;;
18176;SDS011;9213;50.858;3.964;2023-07-29T10:53:06;1.38;;;1.23;;
18176;SDS011;9213;50.858;3.964;2023-07-29T10:55:34;1.20;;;1.20;;
18176;SDS011;9213;50.858;3.964;2023-07-29T10:58:06;1.85;;;1.42;;
18176;SDS011;9213;50.858;3.964;2023-07-29T11:00:34;1.95;;;1.33;;
18176;SDS011;9213;50.858;3.964;2023-07-29T11:03:02;1.50;;;1.40;;
18176;SDS011;9213;50.858;3.964;2023-07-29T11:05:46;3.15;;;1.20;;
18176;SDS011;9213;50.858;3.964;2023-07-29T11:08:15;1.52;;;1.40;;
18176;SDS011;9213;50.858;3.964;2023-07-29T11:11:00;1.30;;;1.30;;
18176;SDS011;9213;50.858;3.964;2023-07-29T11:13:29;1.42;;;1.42;;
18176;SDS011;9213;50.858;3.964;2023-07-29T11:15:56;1.80;;;1.70;;
18176;SDS011;9213;50.858;3.964;2023-07-29T11:18:26;2.35;;;1.52;;
18176;SDS011;9213;50.858;3.964;2023-07-29T11:20:56;8.02;;;2.88;;
18176;SDS011;9213;50.858;3.964;2023-07-29T11:23:30;9.70;;;2.40;;
18176;SDS011;9213;50.858;3.964;2023-07-29T11:25:58;4.28;;;2.10;;
18176;SDS011;9213;50.858;3.964;2023-07-29T11:28:26;3.13;;;1.98;;
18176;SDS011;9213;50.858;3.964;2023-07-29T11:30:54;2.05;;;1.95;;
18176;SDS011;9213;50.858;3.964;2023-07-29T11:33:23;5.18;;;2.63;;
18176;SDS011;9213;50.858;3.964;2023-07-29T11:35:53;2.08;;;1.98;;
18176;SDS011;9213;50.858;3.964;2023-07-29T11:38:22;3.53;;;1.83;;
18176;SDS011;9213;50.858;3.964;2023-07-29T11:40:56;3.28;;;2.20;;
18176;SDS011;9213;50.858;3.964;2023-07-29T11:43:25;2.50;;;2.30;;
18176;SDS011;9213;50.858;3.964;2023-07-29T11:45:53;2.70;;;2.20;;
18176;SDS011;9213;50.858;3.964;2023-07-29T11:48:26;4.05;;;1.80;;
18176;SDS011;9213;50.858;3.964;2023-07-29T11:50:53;2.00;;;1.80;;
18176;SDS011;9213;50.858;3.964;2023-07-29T11:53:22;2.15;;;2.05;;
18176;SDS011;9213;50.858;3.964;2023-07-29T11:55:52;1.75;;;1.65;;
18176;SDS011;9213;50.858;3.964;2023-07-29T11:58:19;2.05;;;1.92;;
18176;SDS011;9213;50.858;3.964;2023-07-29T12:00:46;2.45;;;2.25;;
18176;SDS011;9213;50.858;3.964;2023-07-29T12:03:14;1.98;;;1.88;;
18176;SDS011;9213;50.858;3.964;2023-07-29T12:05:42;1.75;;;1.60;;
18176;SDS011;9213;50.858;3.964;2023-07-29T12:08:10;2.45;;;1.85;;
18176;SDS011;9213;50.858;3.964;2023-07-29T12:10:38;1.80;;;1.70;;
18176;SDS011;9213;50.858;3.964;2023-07-29T12:13:07;1.80;;;1.70;;
18176;SDS011;9213;50.858;3.964;2023-07-29T12:15:34;1.80;;;1.70;;
18176;SDS011;9213;50.858;3.964;2023-07-29T12:18:03;1.80;;;1.70;;
18176;SDS011;9213;50.858;3.964;2023-07-29T12:20:30;2.90;;;1.95;;
18176;SDS011;9213;50.858;3.964;2023-07-29T12:22:59;1.70;;;1.60;;
18176;SDS011;9213;50.858;3.964;2023-07-29T12:25:28;1.88;;;1.77;;
18176;SDS011;9213;50.858;3.964;2023-07-29T12:27:56;1.63;;;1.52;;
18176;SDS011;9213;50.858;3.964;2023-07-29T12:30:29;1.60;;;1.50;;
18176;SDS011;9213;50.858;3.964;2023-07-29T12:32:55;1.40;;;1.30;;
18176;SDS011;9213;50.858;3.964;2023-07-29T12:35:22;2.80;;;1.40;;
18176;SDS011;9213;50.858;3.964;2023-07-29T12:37:57;1.20;;;1.10;;
18176;SDS011;9213;50.858;3.964;2023-07-29T12:40:25;1.20;;;1.10;;
18176;SDS011;9213;50.858;3.964;2023-07-29T12:42:53;3.13;;;1.30;;
18176;SDS011;9213;50.858;3.964;2023-07-29T12:45:21;1.35;;;1.25;;
18176;SDS011;9213;50.858;3.964;2023-07-29T12:47:52;1.13;;;1.13;;
18176;SDS011;9213;50.858;3.964;2023-07-29T12:50:19;1.40;;;1.30;;
18176;SDS011;9213;50.858;3.964;2023-07-29T12:52:46;1.15;;;1.13;;
18176;SDS011;9213;50.858;3.964;2023-07-29T12:55:13;1.10;;;1.10;;
18176;SDS011;9213;50.858;3.964;2023-07-29T12:57:41;1.25;;;1.10;;
18176;SDS011;9213;50.858;3.964;2023-07-29T13:00:09;1.80;;;1.30;;
18176;SDS011;9213;50.858;3.964;2023-07-29T13:02:38;2.17;;;1.20;;
18176;SDS011;9213;50.858;3.964;2023-07-29T13:05:05;1.38;;;1.30;;
18176;SDS011;9213;50.858;3.964;2023-07-29T13:07:36;1.17;;;1.17;;
18176;SDS011;9213;50.858;3.964;2023-07-29T13:10:04;1.42;;;1.40;;
18176;SDS011;9213;50.858;3.964;2023-07-29T13:12:31;1.42;;;1.20;;
18176;SDS011;9213;50.858;3.964;2023-07-29T13:14:58;2.35;;;1.42;;
18176;SDS011;9213;50.858;3.964;2023-07-29T13:17:25;1.58;;;1.40;;
18176;SDS011;9213;50.858;3.964;2023-07-29T13:19:53;2.75;;;1.55;;
18176;SDS011;9213;50.858;3.964;2023-07-29T13:22:20;1.52;;;1.50;;
18176;SDS011;9213;50.858;3.964;2023-07-29T13:24:47;1.75;;;1.65;;
18176;SDS011;9213;50.858;3.964;2023-07-29T13:27:14;2.15;;;1.95;;
18176;SDS011;9213;50.858;3.964;2023-07-29T13:29:41;5.78;;;1.77;;
18176;SDS011;9213;50.858;3.964;2023-07-29T13:32:08;2.20;;;2.10;;
18176;SDS011;9213;50.858;3.964;2023-07-29T13:34:35;3.05;;;1.92;;
18176;SDS011;9213;50.858;3.964;2023-07-29T13:37:06;2.00;;;1.90;;
18176;SDS011;9213;50.858;3.964;2023-07-29T13:39:33;1.85;;;1.73;;
18176;SDS011;9213;50.858;3.964;2023-07-29T13:42:00;3.35;;;1.98;;
18176;SDS011;9213;50.858;3.964;2023-07-29T13:44:27;3.47;;;1.60;;
18176;SDS011;9213;50.858;3.964;2023-07-29T13:46:54;5.32;;;1.90;;
18176;SDS011;9213;50.858;3.964;2023-07-29T13:49:21;1.77;;;1.67;;
18176;SDS011;9213;50.858;3.964;2023-07-29T13:51:47;4.57;;;1.90;;
18176;SDS011;9213;50.858;3.964;2023-07-29T13:54:16;1.90;;;1.80;;
18176;SDS011;9213;50.858;3.964;2023-07-29T13:56:43;1.98;;;1.58;;
18176;SDS011;9213;50.858;3.964;2023-07-29T13:59:10;1.92;;;1.50;;
18176;SDS011;9213;50.858;3.964;2023-07-29T14:01:37;2.70;;;1.58;;
18176;SDS011;9213;50.858;3.964;2023-07-29T14:04:04;1.45;;;1.40;;
18176;SDS011;9213;50.858;3.964;2023-07-29T14:06:30;2.40;;;1.60;;
18176;SDS011;9213;50.858;3.964;2023-07-29T14:08:58;1.90;;;1.80;;
18176;SDS011;9213;50.858;3.964;2023-07-29T14:11:26;1.65;;;1.50;;
18176;SDS011;9213;50.858;3.964;2023-07-29T14:13:53;1.80;;;1.70;;
18176;SDS011;9213;50.858;3.964;2023-07-29T14:16:20;1.85;;;1.75;;
18176;SDS011;9213;50.858;3.964;2023-07-29T14:18:47;1.77;;;1.67;;
18176;SDS011;9213;50.858;3.964;2023-07-29T14:21:14;2.05;;;1.95;;
18176;SDS011;9213;50.858;3.964;2023-07-29T14:23:41;2.42;;;1.90;;
18176;SDS011;9213;50.858;3.964;2023-07-29T14:26:08;7.25;;;3.08;;
18176;SDS011;9213;50.858;3.964;2023-07-29T14:28:37;5.07;;;2.90;;
18176;SDS011;9213;50.858;3.964;2023-07-29T14:31:04;2.47;;;2.28;;
18176;SDS011;9213;50.858;3.964;2023-07-29T14:33:30;6.75;;;3.47;;
18176;SDS011;9213;50.858;3.964;2023-07-29T14:35:57;4.18;;;2.50;;
18176;SDS011;9213;50.858;3.964;2023-07-29T14:38:24;2.30;;;2.13;;
18176;SDS011;9213;50.858;3.964;2023-07-29T14:40:51;2.92;;;2.28;;
18176;SDS011;9213;50.858;3.964;2023-07-29T14:43:19;3.85;;;2.40;;
18176;SDS011;9213;50.858;3.964;2023-07-29T14:45:48;3.00;;;2.70;;
18176;SDS011;9213;50.858;3.964;2023-07-29T14:48:15;3.67;;;2.47;;
18176;SDS011;9213;50.858;3.964;2023-07-29T14:50:42;2.92;;;2.53;;
18176;SDS011;9213;50.858;3.964;2023-07-29T14:53:09;2.70;;;2.50;;
18176;SDS011;9213;50.858;3.964;2023-07-29T14:55:36;3.42;;;2.50;;
18176;SDS011;9213;50.858;3.964;2023-07-29T14:58:04;2.90;;;2.70;;
18176;SDS011;9213;50.858;3.964;2023-07-29T15:00:31;3.22;;;2.88;;
18176;SDS011;9213;50.858;3.964;2023-07-29T15:02:59;2.97;;;2.55;;
18176;SDS011;9213;50.858;3.964;2023-07-29T15:05:26;2.92;;;2.70;;